Terminal Aerodrome Forecast
Issued by NWS Twin Cities, MN

Home | Current Version | Previous Version | Graphics & Text | Print | Product List | Glossary On
Versions: 1 2 3 4 5 6 7 8 9 10 11 12 13 14 15
000
FTUS43 KMPX 282026 AAA
TAFEAU
TAF AMD
KEAU 282026Z 2820/2918 06007KT P6SM SCT020 OVC040
      TEMPO 2820/2823 BKN020
     FM290000 03005KT P6SM SCT035 BKN050
     FM290600 04003KT P6SM BKN080
     FM291400 06006KT P6SM SCT150=

USA.gov is the U.S. government's official web portal to all federal, state and local government web resources and services.